sensor_id;sensor_type;location;lat;lon;timestamp;pressure;altitude;pressure_sealevel;temperature;humidity
51195;BME280;37259;49.972;19.850;2023-04-21T00:00:02;98830;;;6.6;85.2
51195;BME280;37259;49.972;19.850;2023-04-21T00:01:02;98830;;;6.6;85.2
51195;BME280;37259;49.972;19.850;2023-04-21T00:02:02;98830;;;6.6;85.2
51195;BME280;37259;49.972;19.850;2023-04-21T00:03:02;98830;;;6.6;85.2
51195;BME280;37259;49.972;19.850;2023-04-21T00:04:02;98830;;;6.6;85.2
51195;BME280;37259;49.972;19.850;2023-04-21T00:05:02;98830;;;6.7;85.2
51195;BME280;37259;49.972;19.850;2023-04-21T00:06:02;98830;;;6.7;85.2
51195;BME280;37259;49.972;19.850;2023-04-21T00:07:02;98830;;;6.7;85.3
51195;BME280;37259;49.972;19.850;2023-04-21T00:08:02;98830;;;6.7;85.3
51195;BME280;37259;49.972;19.850;2023-04-21T00:09:02;98830;;;6.7;85.4
51195;BME280;37259;49.972;19.850;2023-04-21T00:10:02;98830;;;6.7;85.4
51195;BME280;37259;49.972;19.850;2023-04-21T00:11:02;98830;;;6.7;85.4
51195;BME280;37259;49.972;19.850;2023-04-21T00:12:02;98820;;;6.8;85.5
51195;BME280;37259;49.972;19.850;2023-04-21T00:13:02;98820;;;6.8;85.5
51195;BME280;37259;49.972;19.850;2023-04-21T00:14:02;98820;;;6.8;85.5
51195;BME280;37259;49.972;19.850;2023-04-21T00:15:02;98820;;;6.8;85.5
51195;BME280;37259;49.972;19.850;2023-04-21T00:16:02;98820;;;6.8;85.5
51195;BME280;37259;49.972;19.850;2023-04-21T00:17:02;98820;;;6.9;85.6
51195;BME280;37259;49.972;19.850;2023-04-21T00:18:02;98820;;;6.9;85.7
51195;BME280;37259;49.972;19.850;2023-04-21T00:19:02;98820;;;6.9;85.7
51195;BME280;37259;49.972;19.850;2023-04-21T00:20:02;98820;;;6.9;85.9
51195;BME280;37259;49.972;19.850;2023-04-21T00:21:02;98820;;;6.9;86
51195;BME280;37259;49.972;19.850;2023-04-21T00:22:02;98810;;;7;86.1
51195;BME280;37259;49.972;19.850;2023-04-21T00:23:02;98810;;;7;86.1
51195;BME280;37259;49.972;19.850;2023-04-21T00:24:02;98810;;;7;86.1
51195;BME280;37259;49.972;19.850;2023-04-21T00:25:02;98810;;;7;86.1
51195;BME280;37259;49.972;19.850;2023-04-21T00:26:02;98810;;;7;86.1
51195;BME280;37259;49.972;19.850;2023-04-21T00:27:02;98810;;;7.1;86.2
51195;BME280;37259;49.972;19.850;2023-04-21T00:28:02;98810;;;7.1;86.2
51195;BME280;37259;49.972;19.850;2023-04-21T00:29:02;98810;;;7.1;86.2
51195;BME280;37259;49.972;19.850;2023-04-21T00:30:02;98810;;;7.1;86.2
51195;BME280;37259;49.972;19.850;2023-04-21T00:31:02;98810;;;7.1;86.2
51195;BME280;37259;49.972;19.850;2023-04-21T00:32:02;98810;;;7.2;86.1
51195;BME280;37259;49.972;19.850;2023-04-21T00:33:02;98810;;;7.2;86.1
51195;BME280;37259;49.972;19.850;2023-04-21T00:34:02;98810;;;7.2;86
51195;BME280;37259;49.972;19.850;2023-04-21T00:35:02;98810;;;7.2;85.9
51195;BME280;37259;49.972;19.850;2023-04-21T00:36:02;98810;;;7.3;85.9
51195;BME280;37259;49.972;19.850;2023-04-21T00:37:02;98810;;;7.3;85.9
51195;BME280;37259;49.972;19.850;2023-04-21T00:38:02;98810;;;7.3;85.9
51195;BME280;37259;49.972;19.850;2023-04-21T00:39:02;98810;;;7.3;85.8
51195;BME280;37259;49.972;19.850;2023-04-21T00:40:02;98810;;;7.3;85.7
51195;BME280;37259;49.972;19.850;2023-04-21T00:41:02;98810;;;7.3;85.7
51195;BME280;37259;49.972;19.850;2023-04-21T00:42:02;98810;;;7.3;85.7
51195;BME280;37259;49.972;19.850;2023-04-21T00:43:04;98810;;;7.4;85.6
51195;BME280;37259;49.972;19.850;2023-04-21T00:44:03;98800;;;7.4;85.5
51195;BME280;37259;49.972;19.850;2023-04-21T00:45:02;98800;;;7.3;85.4
51195;BME280;37259;49.972;19.850;2023-04-21T00:46:02;98800;;;7.3;85.4
51195;BME280;37259;49.972;19.850;2023-04-21T00:47:02;98810;;;7.4;85.4
51195;BME280;37259;49.972;19.850;2023-04-21T00:48:02;98810;;;7.4;85.4
51195;BME280;37259;49.972;19.850;2023-04-21T00:49:03;98810;;;7.4;85.3
51195;BME280;37259;49.972;19.850;2023-04-21T00:50:02;98810;;;7.4;85.3
51195;BME280;37259;49.972;19.850;2023-04-21T00:51:02;98810;;;7.4;85.3
51195;BME280;37259;49.972;19.850;2023-04-21T00:52:02;98810;;;7.4;85.2
51195;BME280;37259;49.972;19.850;2023-04-21T00:53:02;98810;;;7.4;85.2
51195;BME280;37259;49.972;19.850;2023-04-21T00:54:02;98810;;;7.3;85.3
51195;BME280;37259;49.972;19.850;2023-04-21T00:55:03;98810;;;7.3;85.3
51195;BME280;37259;49.972;19.850;2023-04-21T00:56:02;98810;;;7.3;85.3
51195;BME280;37259;49.972;19.850;2023-04-21T00:57:02;98810;;;7.3;85.4
51195;BME280;37259;49.972;19.850;2023-04-21T00:58:02;98810;;;7.3;85.3
51195;BME280;37259;49.972;19.850;2023-04-21T00:59:02;98810;;;7.4;85.3
51195;BME280;37259;49.972;19.850;2023-04-21T01:00:02;98810;;;7.4;85.3
51195;BME280;37259;49.972;19.850;2023-04-21T01:01:02;98810;;;7.4;85.3
51195;BME280;37259;49.972;19.850;2023-04-21T01:02:02;98800;;;7.4;85.3
51195;BME280;37259;49.972;19.850;2023-04-21T01:03:02;98800;;;7.4;85.3
51195;BME280;37259;49.972;19.850;2023-04-21T01:04:02;98800;;;7.4;85.3
51195;BME280;37259;49.972;19.850;2023-04-21T01:05:03;98810;;;7.4;85.4
51195;BME280;37259;49.972;19.850;2023-04-21T01:06:02;98810;;;7.4;85.4
51195;BME280;37259;49.972;19.850;2023-04-21T01:07:02;98810;;;7.4;85.4
51195;BME280;37259;49.972;19.850;2023-04-21T01:08:02;98810;;;7.4;85.4
51195;BME280;37259;49.972;19.850;2023-04-21T01:09:02;98800;;;7.4;85.3
51195;BME280;37259;49.972;19.850;2023-04-21T01:10:02;98800;;;7.4;85.3
51195;BME280;37259;49.972;19.850;2023-04-21T01:11:07;98800;;;7.4;85.3
51195;BME280;37259;49.972;19.850;2023-04-21T01:12:02;98800;;;7.5;85.3
51195;BME280;37259;49.972;19.850;2023-04-21T01:13:02;98800;;;7.5;85.3
51195;BME280;37259;49.972;19.850;2023-04-21T01:14:02;98810;;;7.5;85.2
51195;BME280;37259;49.972;19.850;2023-04-21T01:15:02;98810;;;7.5;85.2
51195;BME280;37259;49.972;19.850;2023-04-21T01:16:02;98810;;;7.5;85.2
51195;BME280;37259;49.972;19.850;2023-04-21T01:17:02;98810;;;7.5;85.2
51195;BME280;37259;49.972;19.850;2023-04-21T01:18:02;98800;;;7.5;85.2
51195;BME280;37259;49.972;19.850;2023-04-21T01:19:02;98800;;;7.5;85.2
51195;BME280;37259;49.972;19.850;2023-04-21T01:20:02;98810;;;7.5;85.2
51195;BME280;37259;49.972;19.850;2023-04-21T01:21:02;98810;;;7.5;85.2
51195;BME280;37259;49.972;19.850;2023-04-21T01:22:02;98810;;;7.5;85.2
51195;BME280;37259;49.972;19.850;2023-04-21T01:23:02;98800;;;7.5;85.1
51195;BME280;37259;49.972;19.850;2023-04-21T01:24:02;98810;;;7.5;85.1
51195;BME280;37259;49.972;19.850;2023-04-21T01:26:02;98810;;;7.6;85
51195;BME280;37259;49.972;19.850;2023-04-21T01:27:02;98810;;;7.5;85
51195;BME280;37259;49.972;19.850;2023-04-21T01:28:02;98810;;;7.5;85
51195;BME280;37259;49.972;19.850;2023-04-21T01:29:02;98810;;;7.5;85
51195;BME280;37259;49.972;19.850;2023-04-21T01:30:02;98810;;;7.5;85
51195;BME280;37259;49.972;19.850;2023-04-21T01:31:02;98800;;;7.6;85
51195;BME280;37259;49.972;19.850;2023-04-21T01:32:03;98800;;;7.6;85
51195;BME280;37259;49.972;19.850;2023-04-21T01:33:02;98800;;;7.6;84.9
51195;BME280;37259;49.972;19.850;2023-04-21T01:34:02;98800;;;7.6;84.9
51195;BME280;37259;49.972;19.850;2023-04-21T01:35:02;98800;;;7.6;84.9
51195;BME280;37259;49.972;19.850;2023-04-21T01:36:02;98810;;;7.6;85
51195;BME280;37259;49.972;19.850;2023-04-21T01:37:02;98810;;;7.6;85
51195;BME280;37259;49.972;19.850;2023-04-21T01:38:02;98810;;;7.6;85
51195;BME280;37259;49.972;19.850;2023-04-21T01:39:02;98810;;;7.6;85
51195;BME280;37259;49.972;19.850;2023-04-21T01:40:03;98800;;;7.6;84.9
51195;BME280;37259;49.972;19.850;2023-04-21T01:41:02;98800;;;7.6;84.9
51195;BME280;37259;49.972;19.850;2023-04-21T01:42:02;98800;;;7.6;84.8
51195;BME280;37259;49.972;19.850;2023-04-21T01:43:02;98800;;;7.6;84.8
51195;BME280;37259;49.972;19.850;2023-04-21T01:44:02;98800;;;7.6;84.7
51195;BME280;37259;49.972;19.850;2023-04-21T01:45:02;98800;;;7.6;84.7
51195;BME280;37259;49.972;19.850;2023-04-21T01:46:02;98800;;;7.6;84.7
51195;BME280;37259;49.972;19.850;2023-04-21T01:47:02;98800;;;7.6;84.7
51195;BME280;37259;49.972;19.850;2023-04-21T01:48:02;98800;;;7.6;84.8
51195;BME280;37259;49.972;19.850;2023-04-21T01:49:02;98800;;;7.6;84.8
51195;BME280;37259;49.972;19.850;2023-04-21T01:50:02;98800;;;7.6;84.7
51195;BME280;37259;49.972;19.850;2023-04-21T01:51:02;98800;;;7.6;84.7
51195;BME280;37259;49.972;19.850;2023-04-21T01:52:02;98800;;;7.6;84.7
51195;BME280;37259;49.972;19.850;2023-04-21T01:53:02;98800;;;7.6;84.7
51195;BME280;37259;49.972;19.850;2023-04-21T01:54:02;98800;;;7.6;84.6
51195;BME280;37259;49.972;19.850;2023-04-21T01:55:02;98800;;;7.6;84.6
51195;BME280;37259;49.972;19.850;2023-04-21T01:56:02;98800;;;7.6;84.5
51195;BME280;37259;49.972;19.850;2023-04-21T01:57:02;98800;;;7.6;84.5
51195;BME280;37259;49.972;19.850;2023-04-21T01:58:02;98800;;;7.6;84.5
51195;BME280;37259;49.972;19.850;2023-04-21T01:59:02;98800;;;7.6;84.4
51195;BME280;37259;49.972;19.850;2023-04-21T02:00:02;98800;;;7.6;84.4
51195;BME280;37259;49.972;19.850;2023-04-21T02:01:02;98800;;;7.6;84.4
51195;BME280;37259;49.972;19.850;2023-04-21T02:02:02;98800;;;7.6;84.4
51195;BME280;37259;49.972;19.850;2023-04-21T02:03:02;98800;;;7.5;84.4
51195;BME280;37259;49.972;19.850;2023-04-21T02:04:02;98800;;;7.5;84.5
51195;BME280;37259;49.972;19.850;2023-04-21T02:05:02;98800;;;7.5;84.4
51195;BME280;37259;49.972;19.850;2023-04-21T02:06:02;98790;;;7.5;84.4
51195;BME280;37259;49.972;19.850;2023-04-21T02:07:02;98790;;;7.5;84.4
51195;BME280;37259;49.972;19.850;2023-04-21T02:08:02;98800;;;7.5;84.5
51195;BME280;37259;49.972;19.850;2023-04-21T02:09:02;98800;;;7.5;84.5
51195;BME280;37259;49.972;19.850;2023-04-21T02:10:02;98800;;;7.5;84.5
51195;BME280;37259;49.972;19.850;2023-04-21T02:11:02;98800;;;7.5;84.5
51195;BME280;37259;49.972;19.850;2023-04-21T02:12:02;98800;;;7.4;84.5
51195;BME280;37259;49.972;19.850;2023-04-21T02:13:02;98800;;;7.3;84.5
51195;BME280;37259;49.972;19.850;2023-04-21T02:14:02;98800;;;7.3;84.5
51195;BME280;37259;49.972;19.850;2023-04-21T02:15:02;98800;;;7.3;84.7
51195;BME280;37259;49.972;19.850;2023-04-21T02:16:02;98800;;;7.3;84.7
51195;BME280;37259;49.972;19.850;2023-04-21T02:17:02;98800;;;7.3;84.8
51195;BME280;37259;49.972;19.850;2023-04-21T02:18:02;98800;;;7.3;84.8
51195;BME280;37259;49.972;19.850;2023-04-21T02:19:02;98800;;;7.3;84.8
51195;BME280;37259;49.972;19.850;2023-04-21T02:20:02;98800;;;7.3;84.8
51195;BME280;37259;49.972;19.850;2023-04-21T02:21:02;98810;;;7.3;84.7
51195;BME280;37259;49.972;19.850;2023-04-21T02:22:02;98800;;;7.3;84.7
51195;BME280;37259;49.972;19.850;2023-04-21T02:23:02;98810;;;7.3;84.6
51195;BME280;37259;49.972;19.850;2023-04-21T02:24:02;98810;;;7.3;84.6
51195;BME280;37259;49.972;19.850;2023-04-21T02:25:03;98810;;;7.3;84.6
51195;BME280;37259;49.972;19.850;2023-04-21T02:26:02;98800;;;7.3;84.5
51195;BME280;37259;49.972;19.850;2023-04-21T02:27:02;98800;;;7.3;84.5
51195;BME280;37259;49.972;19.850;2023-04-21T02:28:02;98810;;;7.3;84.5
51195;BME280;37259;49.972;19.850;2023-04-21T02:29:02;98810;;;7.2;84.4
51195;BME280;37259;49.972;19.850;2023-04-21T02:30:02;98810;;;7.2;84.4
51195;BME280;37259;49.972;19.850;2023-04-21T02:31:02;98810;;;7.2;84.4
51195;BME280;37259;49.972;19.850;2023-04-21T02:32:02;98810;;;7.2;84.4
51195;BME280;37259;49.972;19.850;2023-04-21T02:33:02;98810;;;7.2;84.4
51195;BME280;37259;49.972;19.850;2023-04-21T02:34:02;98810;;;7.2;84.4
51195;BME280;37259;49.972;19.850;2023-04-21T02:35:02;98810;;;7.2;84.4
51195;BME280;37259;49.972;19.850;2023-04-21T02:36:02;98810;;;7.1;84.4
51195;BME280;37259;49.972;19.850;2023-04-21T02:37:02;98810;;;7.1;84.4
51195;BME280;37259;49.972;19.850;2023-04-21T02:38:02;98810;;;7.1;84.5
51195;BME280;37259;49.972;19.850;2023-04-21T02:39:02;98810;;;7.1;84.5
51195;BME280;37259;49.972;19.850;2023-04-21T02:40:02;98810;;;7.1;84.6
51195;BME280;37259;49.972;19.850;2023-04-21T02:41:02;98810;;;7.1;84.6
51195;BME280;37259;49.972;19.850;2023-04-21T02:42:02;98810;;;7.1;84.6
51195;BME280;37259;49.972;19.850;2023-04-21T02:43:02;98810;;;7;84.7
51195;BME280;37259;49.972;19.850;2023-04-21T02:44:02;98810;;;7;84.8
51195;BME280;37259;49.972;19.850;2023-04-21T02:45:02;98810;;;7;84.8
51195;BME280;37259;49.972;19.850;2023-04-21T02:46:04;98810;;;7;84.8
51195;BME280;37259;49.972;19.850;2023-04-21T02:47:02;98810;;;7;84.9
51195;BME280;37259;49.972;19.850;2023-04-21T02:48:02;98810;;;7;84.9
51195;BME280;37259;49.972;19.850;2023-04-21T02:49:02;98810;;;7;84.9
51195;BME280;37259;49.972;19.850;2023-04-21T02:50:02;98810;;;7;84.9
51195;BME280;37259;49.972;19.850;2023-04-21T02:51:02;98810;;;6.9;84.8
51195;BME280;37259;49.972;19.850;2023-04-21T02:52:02;98810;;;6.9;84.8
51195;BME280;37259;49.972;19.850;2023-04-21T02:53:02;98810;;;6.9;84.8
51195;BME280;37259;49.972;19.850;2023-04-21T02:54:02;98810;;;6.9;84.8
51195;BME280;37259;49.972;19.850;2023-04-21T02:55:02;98810;;;6.9;84.8
51195;BME280;37259;49.972;19.850;2023-04-21T02:56:02;98810;;;6.9;84.9
51195;BME280;37259;49.972;19.850;2023-04-21T02:57:02;98810;;;6.9;85
51195;BME280;37259;49.972;19.850;2023-04-21T02:58:02;98810;;;6.9;85
51195;BME280;37259;49.972;19.850;2023-04-21T02:59:02;98810;;;6.8;85.1
51195;BME280;37259;49.972;19.850;2023-04-21T03:00:02;98810;;;6.8;85.2
51195;BME280;37259;49.972;19.850;2023-04-21T03:01:02;98810;;;6.8;85.2
51195;BME280;37259;49.972;19.850;2023-04-21T03:02:02;98810;;;6.8;85.2
51195;BME280;37259;49.972;19.850;2023-04-21T03:03:02;98810;;;6.8;85.2
51195;BME280;37259;49.972;19.850;2023-04-21T03:04:02;98810;;;6.8;85.4
51195;BME280;37259;49.972;19.850;2023-04-21T03:05:02;98810;;;6.8;85.4
51195;BME280;37259;49.972;19.850;2023-04-21T03:06:02;98810;;;6.8;85.4
51195;BME280;37259;49.972;19.850;2023-04-21T03:07:02;98810;;;6.8;85.4
51195;BME280;37259;49.972;19.850;2023-04-21T03:08:02;98810;;;6.8;85.4
51195;BME280;37259;49.972;19.850;2023-04-21T03:09:02;98810;;;6.8;85.4
51195;BME280;37259;49.972;19.850;2023-04-21T03:10:02;98810;;;6.8;85.4
51195;BME280;37259;49.972;19.850;2023-04-21T03:11:02;98810;;;6.8;85.4
51195;BME280;37259;49.972;19.850;2023-04-21T03:12:02;98810;;;6.8;85.4
51195;BME280;37259;49.972;19.850;2023-04-21T03:13:02;98800;;;6.7;85.4
51195;BME280;37259;49.972;19.850;2023-04-21T03:14:02;98800;;;6.7;85.4
51195;BME280;37259;49.972;19.850;2023-04-21T03:15:03;98800;;;6.7;85.4
51195;BME280;37259;49.972;19.850;2023-04-21T03:16:02;98800;;;6.7;85.4
51195;BME280;37259;49.972;19.850;2023-04-21T03:17:02;98800;;;6.6;85.4
51195;BME280;37259;49.972;19.850;2023-04-21T03:18:02;98800;;;6.6;85.4
51195;BME280;37259;49.972;19.850;2023-04-21T03:19:02;98800;;;6.6;85.4
51195;BME280;37259;49.972;19.850;2023-04-21T03:20:02;98800;;;6.6;85.3
51195;BME280;37259;49.972;19.850;2023-04-21T03:21:02;98800;;;6.6;85.3
51195;BME280;37259;49.972;19.850;2023-04-21T03:22:02;98800;;;6.5;85.3
51195;BME280;37259;49.972;19.850;2023-04-21T03:23:02;98800;;;6.5;85.3
51195;BME280;37259;49.972;19.850;2023-04-21T03:24:02;98810;;;6.5;85.3
51195;BME280;37259;49.972;19.850;2023-04-21T03:25:02;98810;;;6.5;85.3
51195;BME280;37259;49.972;19.850;2023-04-21T03:26:05;98800;;;6.5;85.3
51195;BME280;37259;49.972;19.850;2023-04-21T03:27:04;98800;;;6.5;85.3
51195;BME280;37259;49.972;19.850;2023-04-21T03:28:02;98810;;;6.4;85.2
51195;BME280;37259;49.972;19.850;2023-04-21T03:29:02;98810;;;6.4;85.2
51195;BME280;37259;49.972;19.850;2023-04-21T03:30:02;98810;;;6.4;85.2
51195;BME280;37259;49.972;19.850;2023-04-21T03:31:02;98810;;;6.4;85.1
51195;BME280;37259;49.972;19.850;2023-04-21T03:32:02;98810;;;6.4;85.1
51195;BME280;37259;49.972;19.850;2023-04-21T03:33:02;98810;;;6.3;85
51195;BME280;37259;49.972;19.850;2023-04-21T03:34:02;98810;;;6.3;84.9
51195;BME280;37259;49.972;19.850;2023-04-21T03:35:02;98810;;;6.3;84.9
51195;BME280;37259;49.972;19.850;2023-04-21T03:36:02;98810;;;6.2;84.9
51195;BME280;37259;49.972;19.850;2023-04-21T03:37:02;98810;;;6.2;84.9
51195;BME280;37259;49.972;19.850;2023-04-21T03:38:02;98810;;;6.2;84.9
51195;BME280;37259;49.972;19.850;2023-04-21T03:39:02;98810;;;6.1;84.8
51195;BME280;37259;49.972;19.850;2023-04-21T03:40:02;98810;;;6.1;84.8
51195;BME280;37259;49.972;19.850;2023-04-21T03:41:02;98810;;;6.1;84.9
51195;BME280;37259;49.972;19.850;2023-04-21T03:42:02;98810;;;6.1;84.9
51195;BME280;37259;49.972;19.850;2023-04-21T03:43:02;98810;;;6.1;84.9
51195;BME280;37259;49.972;19.850;2023-04-21T03:44:02;98810;;;6;85
51195;BME280;37259;49.972;19.850;2023-04-21T03:45:03;98810;;;6;85
51195;BME280;37259;49.972;19.850;2023-04-21T03:46:02;98810;;;6;85
51195;BME280;37259;49.972;19.850;2023-04-21T03:47:02;98810;;;6;85
51195;BME280;37259;49.972;19.850;2023-04-21T03:48:02;98810;;;6;85.1
51195;BME280;37259;49.972;19.850;2023-04-21T03:49:02;98810;;;6;85.2
51195;BME280;37259;49.972;19.850;2023-04-21T03:50:02;98810;;;5.9;85.2
51195;BME280;37259;49.972;19.850;2023-04-21T03:51:02;98810;;;5.9;85.2
51195;BME280;37259;49.972;19.850;2023-04-21T03:52:02;98820;;;5.9;85.3
51195;BME280;37259;49.972;19.850;2023-04-21T03:53:02;98820;;;5.9;85.3
51195;BME280;37259;49.972;19.850;2023-04-21T03:54:02;98820;;;5.9;85.3
51195;BME280;37259;49.972;19.850;2023-04-21T03:55:02;98820;;;5.9;85.3
51195;BME280;37259;49.972;19.850;2023-04-21T03:56:02;98820;;;5.9;85.3
51195;BME280;37259;49.972;19.850;2023-04-21T03:57:02;98820;;;5.9;85.4
51195;BME280;37259;49.972;19.850;2023-04-21T03:58:02;98820;;;5.9;85.5
51195;BME280;37259;49.972;19.850;2023-04-21T03:59:02;98820;;;5.9;85.5
51195;BME280;37259;49.972;19.850;2023-04-21T04:00:02;98820;;;5.9;85.8
51195;BME280;37259;49.972;19.850;2023-04-21T04:01:03;98820;;;5.9;85.8
51195;BME280;37259;49.972;19.850;2023-04-21T04:02:02;98830;;;5.8;85.9
51195;BME280;37259;49.972;19.850;2023-04-21T04:03:02;98830;;;5.8;85.9
51195;BME280;37259;49.972;19.850;2023-04-21T04:04:02;98820;;;5.8;86.1
51195;BME280;37259;49.972;19.850;2023-04-21T04:05:02;98820;;;5.8;86.1
51195;BME280;37259;49.972;19.850;2023-04-21T04:06:02;98830;;;5.9;86.2
51195;BME280;37259;49.972;19.850;2023-04-21T04:07:02;98830;;;5.9;86.3
51195;BME280;37259;49.972;19.850;2023-04-21T04:08:02;98830;;;5.9;86.4
51195;BME280;37259;49.972;19.850;2023-04-21T04:09:02;98830;;;5.9;86.4
51195;BME280;37259;49.972;19.850;2023-04-21T04:10:02;98830;;;5.9;86.4
51195;BME280;37259;49.972;19.850;2023-04-21T04:11:02;98830;;;5.9;86.5
51195;BME280;37259;49.972;19.850;2023-04-21T04:12:02;98830;;;5.9;86.5
51195;BME280;37259;49.972;19.850;2023-04-21T04:13:02;98840;;;5.9;86.5
51195;BME280;37259;49.972;19.850;2023-04-21T04:14:02;98840;;;5.9;86.5
51195;BME280;37259;49.972;19.850;2023-04-21T04:15:02;98840;;;5.9;86.5
51195;BME280;37259;49.972;19.850;2023-04-21T04:16:02;98840;;;5.9;86.5
51195;BME280;37259;49.972;19.850;2023-04-21T04:17:02;98840;;;5.9;86.5
51195;BME280;37259;49.972;19.850;2023-04-21T04:18:02;98840;;;5.9;86.4
51195;BME280;37259;49.972;19.850;2023-04-21T04:19:02;98840;;;5.9;86.4
51195;BME280;37259;49.972;19.850;2023-04-21T04:20:02;98840;;;5.9;86.4
51195;BME280;37259;49.972;19.850;2023-04-21T04:21:04;98840;;;5.9;86.4
51195;BME280;37259;49.972;19.850;2023-04-21T04:22:02;98840;;;5.9;86.4
51195;BME280;37259;49.972;19.850;2023-04-21T04:23:02;98840;;;5.9;86.4
51195;BME280;37259;49.972;19.850;2023-04-21T04:24:02;98840;;;5.9;86.4
51195;BME280;37259;49.972;19.850;2023-04-21T04:25:02;98840;;;5.9;86.4
51195;BME280;37259;49.972;19.850;2023-04-21T04:26:02;98840;;;5.9;86.4
51195;BME280;37259;49.972;19.850;2023-04-21T04:27:02;98840;;;5.9;86.4
51195;BME280;37259;49.972;19.850;2023-04-21T04:28:02;98840;;;6;86.5
51195;BME280;37259;49.972;19.850;2023-04-21T04:29:02;98840;;;6;86.5
51195;BME280;37259;49.972;19.850;2023-04-21T04:30:02;98840;;;6;86.5
51195;BME280;37259;49.972;19.850;2023-04-21T04:31:02;98840;;;6;86.6
51195;BME280;37259;49.972;19.850;2023-04-21T04:32:02;98840;;;6;86.6
51195;BME280;37259;49.972;19.850;2023-04-21T04:33:02;98840;;;6;86.6
51195;BME280;37259;49.972;19.850;2023-04-21T04:34:02;98840;;;6;86.6
51195;BME280;37259;49.972;19.850;2023-04-21T04:35:02;98850;;;6.1;86.7
51195;BME280;37259;49.972;19.850;2023-04-21T04:36:02;98850;;;6.1;86.7
51195;BME280;37259;49.972;19.850;2023-04-21T04:37:02;98850;;;6.1;86.8
51195;BME280;37259;49.972;19.850;2023-04-21T04:38:02;98850;;;6.2;86.8
51195;BME280;37259;49.972;19.850;2023-04-21T04:39:02;98850;;;6.2;86.9
51195;BME280;37259;49.972;19.850;2023-04-21T04:40:02;98850;;;6.2;86.9
51195;BME280;37259;49.972;19.850;2023-04-21T04:41:02;98850;;;6.3;87
51195;BME280;37259;49.972;19.850;2023-04-21T04:42:02;98850;;;6.3;87
51195;BME280;37259;49.972;19.850;2023-04-21T04:43:02;98850;;;6.3;87
51195;BME280;37259;49.972;19.850;2023-04-21T04:44:02;98850;;;6.4;87
51195;BME280;37259;49.972;19.850;2023-04-21T04:45:02;98850;;;6.4;87
51195;BME280;37259;49.972;19.850;2023-04-21T04:46:02;98850;;;6.5;87
51195;BME280;37259;49.972;19.850;2023-04-21T04:47:02;98860;;;6.5;87.1
51195;BME280;37259;49.972;19.850;2023-04-21T04:48:02;98860;;;6.5;87.1
51195;BME280;37259;49.972;19.850;2023-04-21T04:49:02;98860;;;6.5;87
51195;BME280;37259;49.972;19.850;2023-04-21T04:50:02;98860;;;6.6;87
51195;BME280;37259;49.972;19.850;2023-04-21T04:51:02;98860;;;6.6;87
51195;BME280;37259;49.972;19.850;2023-04-21T04:52:02;98860;;;6.6;87
51195;BME280;37259;49.972;19.850;2023-04-21T04:53:02;98860;;;6.7;87
51195;BME280;37259;49.972;19.850;2023-04-21T04:54:02;98860;;;6.7;87
51195;BME280;37259;49.972;19.850;2023-04-21T04:55:02;98860;;;6.7;87
51195;BME280;37259;49.972;19.850;2023-04-21T04:56:02;98860;;;6.8;87
51195;BME280;37259;49.972;19.850;2023-04-21T04:57:02;98860;;;6.8;87
51195;BME280;37259;49.972;19.850;2023-04-21T04:58:02;98860;;;6.8;87.1
51195;BME280;37259;49.972;19.850;2023-04-21T04:59:02;98860;;;6.8;87.1
51195;BME280;37259;49.972;19.850;2023-04-21T05:00:02;98870;;;6.9;87
51195;BME280;37259;49.972;19.850;2023-04-21T05:01:09;98870;;;6.9;87
51195;BME280;37259;49.972;19.850;2023-04-21T05:02:02;98870;;;6.9;87
51195;BME280;37259;49.972;19.850;2023-04-21T05:03:02;98870;;;6.9;87
51195;BME280;37259;49.972;19.850;2023-04-21T05:04:02;98870;;;7;87
51195;BME280;37259;49.972;19.850;2023-04-21T05:05:02;98870;;;7;87
51195;BME280;37259;49.972;19.850;2023-04-21T05:06:02;98870;;;7;87
51195;BME280;37259;49.972;19.850;2023-04-21T05:07:02;98870;;;7;87
51195;BME280;37259;49.972;19.850;2023-04-21T05:08:02;98870;;;7.1;86.9
51195;BME280;37259;49.972;19.850;2023-04-21T05:09:02;98870;;;7.1;86.9
51195;BME280;37259;49.972;19.850;2023-04-21T05:10:02;98870;;;7.1;86.9
51195;BME280;37259;49.972;19.850;2023-04-21T05:11:02;98870;;;7.2;86.9
51195;BME280;37259;49.972;19.850;2023-04-21T05:12:02;98870;;;7.2;86.9
51195;BME280;37259;49.972;19.850;2023-04-21T05:13:02;98870;;;7.2;86.9
51195;BME280;37259;49.972;19.850;2023-04-21T05:14:02;98870;;;7.3;86.9
51195;BME280;37259;49.972;19.850;2023-04-21T05:15:02;98870;;;7.3;86.9
51195;BME280;37259;49.972;19.850;2023-04-21T05:16:02;98870;;;7.3;86.9
51195;BME280;37259;49.972;19.850;2023-04-21T05:17:02;98870;;;7.5;86.9
51195;BME280;37259;49.972;19.850;2023-04-21T05:18:02;98860;;;7.5;86.9
51195;BME280;37259;49.972;19.850;2023-04-21T05:19:02;98860;;;7.6;86.9
51195;BME280;37259;49.972;19.850;2023-04-21T05:20:02;98860;;;7.6;86.9
51195;BME280;37259;49.972;19.850;2023-04-21T05:21:02;98860;;;7.7;86.8
51195;BME280;37259;49.972;19.850;2023-04-21T05:22:02;98860;;;7.7;86.8
51195;BME280;37259;49.972;19.850;2023-04-21T05:23:02;98860;;;7.7;86.8
51195;BME280;37259;49.972;19.850;2023-04-21T05:24:02;98860;;;7.8;86.8
51195;BME280;37259;49.972;19.850;2023-04-21T05:25:02;98860;;;7.9;86.8
51195;BME280;37259;49.972;19.850;2023-04-21T05:26:02;98860;;;7.9;86.8
51195;BME280;37259;49.972;19.850;2023-04-21T05:27:02;98860;;;8;86.7
51195;BME280;37259;49.972;19.850;2023-04-21T05:28:02;98860;;;8;86.7
51195;BME280;37259;49.972;19.850;2023-04-21T05:29:02;98870;;;8.1;86.6
51195;BME280;37259;49.972;19.850;2023-04-21T05:30:02;98870;;;8.1;86.6
51195;BME280;37259;49.972;19.850;2023-04-21T05:31:02;98870;;;8.2;86.5
51195;BME280;37259;49.972;19.850;2023-04-21T05:32:02;98870;;;8.2;86.4
51195;BME280;37259;49.972;19.850;2023-04-21T05:33:02;98870;;;8.2;86.4
51195;BME280;37259;49.972;19.850;2023-04-21T05:34:02;98870;;;8.3;86.2
51195;BME280;37259;49.972;19.850;2023-04-21T05:35:02;98870;;;8.3;86.2
51195;BME280;37259;49.972;19.850;2023-04-21T05:36:05;98870;;;8.4;86
51195;BME280;37259;49.972;19.850;2023-04-21T05:37:02;98870;;;8.4;86
51195;BME280;37259;49.972;19.850;2023-04-21T05:38:02;98870;;;8.5;85.9
51195;BME280;37259;49.972;19.850;2023-04-21T05:39:02;98870;;;8.5;85.9
51195;BME280;37259;49.972;19.850;2023-04-21T05:40:02;98870;;;8.5;85.9
51195;BME280;37259;49.972;19.850;2023-04-21T05:41:02;98870;;;8.6;85.8
51195;BME280;37259;49.972;19.850;2023-04-21T05:42:02;98870;;;8.6;85.8
51195;BME280;37259;49.972;19.850;2023-04-21T05:43:02;98870;;;8.8;85.6